Terminal Aerodrome Forecast
Issued by NWS Amarillo, TX

Home | Current Version | Previous Version | Text Only | Print | Product List | Glossary On
Versions: 1 2 3 4 5 6 7 8 9 10 11 12 13 14 15 16 17
000
FTUS44 KAMA 301120
TAFGUY
TAF
KGUY 301120Z 3012/3112 19009KT P6SM FEW110
     FM301900 18012G22KT P6SM SCT060 BKN110
     FM310100 18010KT P6SM SCT110 BKN200=

USA.gov is the U.S. government's official web portal to all federal, state and local government web resources and services.